| time (UTC) | temp F | wind direction | speed MPH | gust MPH | rain 1hr in | rain 24hr in | rain mn in | humidity % | barometer mb |
| 20260510103056 | 54 | 274 | 2.0 | 10.0 | 0.00 | 0.00 | 0.00 | 77 | 1017.4 |
| 20260510101606 | 54 | 286 | 3.0 | 10.0 | 0.00 | 0.00 | 0.00 | 75 | 1017.4 |
| 20260510100134 | 54 | 337 | 3.0 | 11.0 | 0.00 | 0.00 | 0.00 | 76 | 1017.4 |
| 20260510094559 | 54 | 322 | 3.0 | 12.0 | 0.00 | 0.00 | 0.00 | 76 | 1017.4 |
| 20260510093102 | 54 | 44 | 3.0 | 8.0 | 0.00 | 0.00 | 0.00 | 77 | 1017.4 |
| 20260510091559 | 54 | 354 | 3.0 | 9.0 | 0.00 | 0.00 | 0.00 | 78 | 1017.5 |
| 20260510090111 | 54 | 336 | 3.0 | 9.0 | 0.00 | 0.00 | 0.00 | 78 | 1017.5 |
| 20260510084600 | 54 | 351 | 3.0 | 8.0 | 0.00 | 0.00 | 0.00 | 79 | 1017.3 |
| 20260510083103 | 54 | 280 | 2.0 | 9.0 | 0.00 | 0.00 | 0.00 | 79 | 1017.6 |
| 20260510081557 | 54 | 240 | 3.0 | 9.0 | 0.00 | 0.00 | 0.00 | 78 | 1017.6 |
| 20260510080100 | 55 | 263 | 2.0 | 9.0 | 0.00 | 0.00 | 0.00 | 79 | 1017.6 |
| 20260510074558 | 54 | 127 | 2.0 | 5.0 | 0.00 | 0.00 | 0.00 | 81 | 1017.7 |
| 20260510073057 | 53 | 259 | 1.0 | 6.0 | 0.00 | 0.00 | 0.00 | 82 | 1018.0 |
| 20260510071603 | 53 | 306 | 2.0 | 7.0 | 0.00 | 0.00 | 0.00 | 82 | 1017.8 |
| 20260510070053 | 52 | 300 | 2.0 | 6.0 | 0.00 | 0.00 | 0.00 | 83 | 1017.9 |
| 20260510064558 | 52 | 353 | 2.0 | 9.0 | 0.00 | 0.00 | 0.00 | 83 | 1017.8 |
| 20260510063056 | 52 | 301 | 2.0 | 7.0 | 0.00 | 0.00 | 0.00 | 84 | 1017.6 |
| 20260510061556 | 52 | 312 | 2.0 | 6.0 | 0.00 | 0.00 | 0.00 | 83 | 1017.7 |
| 20260510060057 | 52 | 211 | 2.0 | 7.0 | 0.00 | 0.00 | 0.00 | 84 | 1017.6 |
| 20260510054555 | 51 | 339 | 3.0 | 7.0 | 0.00 | 0.00 | 0.00 | 85 | 1017.7 |
| 20260510053056 | 51 | 331 | 4.0 | 9.0 | 0.00 | 0.00 | 0.00 | 85 | 1017.8 |
| 20260510051555 | 51 | 341 | 3.0 | 7.0 | 0.00 | 0.00 | 0.00 | 85 | 1017.8 |
| 20260510050058 | 51 | 278 | 3.0 | 7.0 | 0.00 | 0.00 | 0.00 | 86 | 1017.9 |
| 20260510044558 | 51 | 350 | 3.0 | 7.0 | 0.00 | 0.00 | 0.00 | 86 | 1017.7 |
| 20260510043058 | 51 | 248 | 3.0 | 8.0 | 0.00 | 0.00 | 0.00 | 86 | 1017.7 |
| 20260510041601 | 51 | 274 | 3.0 | 9.0 | 0.00 | 0.00 | 0.00 | 87 | 1017.5 |
| 20260510034604 | 51 | 345 | 3.0 | 8.0 | 0.00 | 0.00 | 0.00 | 86 | 1017.4 |
| 20260510033113 | 52 | 259 | 3.0 | 9.0 | 0.00 | 0.00 | 0.00 | 85 | 1017.5 |
| 20260510031600 | 52 | 297 | 3.0 | 8.0 | 0.00 | 0.00 | 0.00 | 84 | 1017.5 |
| 20260510030054 | 52 | 238 | 1.0 | 6.0 | 0.00 | 0.00 | 0.00 | 82 | 1017.5 |
| 20260510024557 | 52 | 264 | 1.0 | 6.0 | 0.00 | 0.00 | 0.00 | 82 | 1017.5 |
| 20260510023057 | 52 | 309 | 1.0 | 4.0 | 0.00 | 0.00 | 0.00 | 83 | 1017.6 |
| 20260510021557 | 52 | 266 | 1.0 | 7.0 | 0.00 | 0.00 | 0.00 | 84 | 1017.5 |
| 20260510020057 | 52 | 318 | 1.0 | 4.0 | 0.00 | 0.00 | 0.00 | 84 | 1017.6 |
| 20260510014554 | 52 | 206 | 1.0 | 3.0 | 0.00 | 0.00 | 0.00 | 85 | 1017.8 |
| 20260510013055 | 52 | 257 | 0.0 | 3.0 | 0.00 | 0.00 | 0.00 | 85 | 1017.9 |
| 20260510011557 | 52 | 224 | 0.0 | 2.0 | 0.00 | 0.00 | 0.00 | 85 | 1018.0 |
| 20260510010056 | 52 | 0 | 0.0 | 2.0 | 0.00 | 0.00 | 0.00 | 85 | 1018.0 |
| 20260510004600 | 52 | 306 | 0.0 | 1.0 | 0.00 | 0.00 | 0.00 | 84 | 1018.0 |
| 20260510003116 | 52 | 210 | 0.0 | 3.0 | 0.00 | 0.00 | 0.00 | 84 | 1018.0 |
| 20260510001559 | 52 | 0 | 0.0 | 1.0 | 0.00 | 0.00 | 0.00 | 84 | 1018.0 |
| 20260509234612 | 52 | 274 | 0.0 | 2.0 | 0.00 | 0.00 | 0.00 | 84 | 1018.4 |
| 20260509233057 | 52 | 0 | 0.0 | 1.0 | 0.00 | 0.00 | 0.00 | 84 | 1018.5 |
| 20260509231557 | 52 | 0 | 0.0 | 4.0 | 0.00 | 0.00 | 0.00 | 84 | 1018.5 |
| 20260509230108 | 52 | 199 | 0.0 | 2.0 | 0.00 | 0.00 | 0.00 | 84 | 1018.5 |
| 20260509224553 | 52 | 0 | 0.0 | 0.0 | 0.00 | 0.00 | 0.00 | 84 | 1018.5 |
| 20260509223058 | 52 | 0 | 0.0 | 2.0 | 0.00 | 0.00 | 0.00 | 84 | 1018.5 |
| 20260509221555 | 52 | 0 | 0.0 | 1.0 | 0.00 | 0.00 | 0.00 | 84 | 1018.5 |
| 20260509220057 | 52 | 0 | 0.0 | 1.0 | 0.00 | 0.00 | 0.00 | 84 | 1018.4 |
| 20260509214558 | 52 | 0 | 0.0 | 0.0 | 0.00 | 0.00 | 0.00 | 84 | 1018.5 |
| 20260509213105 | 52 | 266 | 0.0 | 2.0 | 0.00 | 0.00 | 0.00 | 84 | 1018.6 |
| 20260509211603 | 52 | 0 | 0.0 | 2.0 | 0.00 | 0.00 | 0.00 | 84 | 1018.3 |
| 20260509204600 | 52 | 0 | 0.0 | 5.0 | 0.00 | 0.00 | 0.00 | 84 | 1018.2 |
| 20260509203106 | 53 | 306 | 0.0 | 5.0 | 0.00 | 0.00 | 0.00 | 84 | 1018.2 |
| 20260509201559 | 53 | 1 | 1.0 | 6.0 | 0.00 | 0.00 | 0.00 | 84 | 1018.2 |
| 20260509194559 | 53 | 0 | 0.0 | 4.0 | 0.00 | 0.00 | 0.00 | 83 | 1018.1 |
| 20260509193059 | 53 | 211 | 0.0 | 3.0 | 0.00 | 0.00 | 0.00 | 83 | 1018.0 |
| 20260509191557 | 54 | 356 | 1.0 | 5.0 | 0.00 | 0.00 | 0.00 | 82 | 1017.8 |
| 20260509190058 | 54 | 356 | 0.0 | 4.0 | 0.00 | 0.00 | 0.00 | 81 | 1017.7 |
| 20260509184602 | 54 | 231 | 0.0 | 3.0 | 0.00 | 0.00 | 0.00 | 80 | 1017.9 |
| 20260509183136 | 55 | 0 | 0.0 | 2.0 | 0.00 | 0.00 | 0.00 | 79 | 1017.7 |
| 20260509181612 | 55 | 0 | 0.0 | 2.0 | 0.00 | 0.00 | 0.00 | 78 | 1017.7 |
| 20260509180100 | 55 | 309 | 0.0 | 4.0 | 0.00 | 0.00 | 0.00 | 77 | 1017.5 |
| 20260509174556 | 55 | 122 | 1.0 | 3.0 | 0.00 | 0.00 | 0.00 | 76 | 1017.5 |
| 20260509173103 | 56 | 249 | 1.0 | 4.0 | 0.00 | 0.00 | 0.00 | 75 | 1017.4 |
| 20260509171559 | 56 | 319 | 1.0 | 4.0 | 0.00 | 0.00 | 0.00 | 74 | 1017.4 |
| 20260509170057 | 57 | 244 | 0.0 | 3.0 | 0.00 | 0.00 | 0.00 | 73 | 1017.7 |
| 20260509164602 | 58 | 282 | 0.0 | 3.0 | 0.00 | 0.00 | 0.00 | 72 | 1017.7 |
| 20260509163100 | 59 | 309 | 1.0 | 4.0 | 0.00 | 0.00 | 0.00 | 71 | 1017.7 |
| 20260509161554 | 61 | 356 | 0.0 | 3.0 | 0.00 | 0.00 | 0.00 | 68 | 1018.0 |
| 20260509160058 | 65 | 0 | 0.0 | 1.0 | 0.00 | 0.00 | 0.00 | 64 | 1018.1 |
| 20260509154557 | 65 | 0 | 0.0 | 0.0 | 0.00 | 0.00 | 0.00 | 65 | 1018.1 |
| 20260509153058 | 65 | 0 | 0.0 | 1.0 | 0.00 | 0.00 | 0.00 | 67 | 1018.3 |
| 20260509151556 | 64 | 0 | 0.0 | 1.0 | 0.00 | 0.00 | 0.00 | 68 | 1018.3 |
| 20260509150054 | 64 | 0 | 0.0 | 3.0 | 0.00 | 0.00 | 0.00 | 68 | 1018.2 |
| 20260509144554 | 65 | 216 | 0.0 | 2.0 | 0.00 | 0.00 | 0.00 | 67 | 1018.1 |
| 20260509143058 | 65 | 0 | 0.0 | 2.0 | 0.00 | 0.00 | 0.00 | 69 | 1018.2 |
| 20260509141607 | 64 | 0 | 0.0 | 1.0 | 0.00 | 0.00 | 0.00 | 68 | 1018.1 |
| 20260509140059 | 64 | 0 | 0.0 | 4.0 | 0.00 | 0.00 | 0.00 | 68 | 1018.2 |
| 20260509134600 | 62 | 248 | 0.0 | 3.0 | 0.00 | 0.00 | 0.00 | 73 | 1018.2 |
| 20260509133110 | 62 | 3 | 1.0 | 3.0 | 0.00 | 0.00 | 0.00 | 71 | 1018.5 |
| 20260509131555 | 62 | 30 | 1.0 | 3.0 | 0.00 | 0.00 | 0.00 | 72 | 1018.6 |
| 20260509130055 | 62 | 342 | 0.0 | 6.0 | 0.00 | 0.00 | 0.00 | 72 | 1018.6 |
| 20260509124556 | 62 | 285 | 1.0 | 2.0 | 0.00 | 0.00 | 0.00 | 72 | 1018.7 |
| 20260509123059 | 63 | 0 | 0.0 | 3.0 | 0.00 | 0.00 | 0.00 | 70 | 1018.8 |
| 20260509121555 | 64 | 31 | 1.0 | 3.0 | 0.00 | 0.00 | 0.00 | 68 | 1018.7 |
| 20260509120056 | 65 | 106 | 0.0 | 1.0 | 0.00 | 0.00 | 0.00 | 70 | 1018.9 |
| 20260509114557 | 64 | 0 | 0.0 | 1.0 | 0.00 | 0.00 | 0.00 | 72 | 1019.1 |
| 20260509113053 | 63 | 51 | 0.0 | 3.0 | 0.00 | 0.00 | 0.00 | 71 | 1019.2 |
| 20260509111554 | 64 | 226 | 0.0 | 2.0 | 0.00 | 0.00 | 0.00 | 70 | 1019.4 |
| 20260509110054 | 64 | 347 | 0.0 | 3.0 | 0.00 | 0.00 | 0.00 | 70 | 1019.5 |
| 20260509104556 | 64 | 0 | 0.0 | 1.0 | 0.00 | 0.00 | 0.00 | 70 | 1019.5 |